Time;durP1;ratioP1;P1;durP2;ratioP2;P2;SDS_P1;SDS_P2;PMS_P1;PMS_P2;Temp;Humidity;BMP_temperature;BMP_pressure;BME280_temperature;BME280_humidity;BME280_pressure;Samples;Min_cycle;Max_cycle;Signal;HPM_P1;HPM_P2
2024/01/24 00:00:37;;;;;;;7.18;1.38;;;11.20;99.90;;;;;;5032582;28;20036;-63
2024/01/24 00:03:03;;;;;;;5.13;0.98;;;11.20;99.90;;;;;;5038405;28;20645;-63
2024/01/24 00:05:29;;;;;;;6.43;1.77;;;11.20;99.90;;;;;;5037582;28;20187;-63
2024/01/24 00:07:55;;;;;;;10.70;1.70;;;11.30;99.90;;;;;;5037268;28;20056;-63
2024/01/24 00:10:23;;;;;;;3.42;1.23;;;11.30;99.90;;;;;;5040288;28;20063;-63
2024/01/24 00:12:49;;;;;;;3.60;1.23;;;11.20;99.90;;;;;;5041089;28;20086;-63
2024/01/24 00:15:14;;;;;;;4.47;1.25;;;11.20;99.90;;;;;;5031974;28;20049;-63
2024/01/24 00:17:40;;;;;;;5.07;1.20;;;11.30;99.90;;;;;;5037669;28;20300;-63
2024/01/24 00:20:07;;;;;;;7.82;1.75;;;11.30;99.90;;;;;;5033490;28;20037;-63
2024/01/24 00:22:32;;;;;;;4.32;2.05;;;11.40;99.90;;;;;;5035994;28;20044;-63
2024/01/24 00:24:58;;;;;;;11.38;1.70;;;11.40;99.90;;;;;;5039883;28;20056;-63
2024/01/24 00:27:24;;;;;;;7.38;1.70;;;11.40;99.90;;;;;;5041863;28;20052;-63
2024/01/24 00:29:50;;;;;;;2.13;1.02;;;11.40;99.90;;;;;;5053131;28;20090;-63
2024/01/24 00:32:15;;;;;;;8.77;1.75;;;11.40;99.90;;;;;;5039447;28;20479;-63
2024/01/24 00:34:41;;;;;;;6.10;1.33;;;11.40;99.90;;;;;;5039511;28;20055;-63
2024/01/24 00:37:07;;;;;;;10.05;1.40;;;11.40;99.90;;;;;;5038894;28;20369;-63
2024/01/24 00:39:35;;;;;;;3.45;1.10;;;11.30;99.90;;;;;;5034617;28;20044;-63
2024/01/24 00:42:00;;;;;;;4.70;1.65;;;11.40;99.90;;;;;;5041701;28;20037;-63
2024/01/24 00:44:26;;;;;;;7.07;1.48;;;11.30;99.90;;;;;;5041585;28;20048;-63
2024/01/24 00:46:52;;;;;;;2.08;0.80;;;11.30;99.90;;;;;;5045833;28;20053;-63
2024/01/24 00:49:18;;;;;;;13.45;2.38;;;11.30;99.90;;;;;;5043913;28;20045;-63
2024/01/24 00:51:44;;;;;;;8.57;1.45;;;11.40;99.90;;;;;;5026481;28;20110;-63
2024/01/24 00:54:10;;;;;;;6.50;1.58;;;11.30;99.90;;;;;;5045281;28;20045;-63
2024/01/24 00:56:36;;;;;;;7.82;1.13;;;11.30;99.90;;;;;;5042569;28;20086;-64
2024/01/24 00:59:02;;;;;;;9.85;1.52;;;11.40;99.90;;;;;;5042372;28;20538;-63
2024/01/24 01:01:30;;;;;;;5.15;1.73;;;11.30;99.90;;;;;;5042055;28;20044;-63
2024/01/24 01:03:56;;;;;;;10.68;2.08;;;11.30;99.90;;;;;;5044542;28;20503;-63
2024/01/24 01:06:22;;;;;;;5.57;1.70;;;11.30;99.90;;;;;;5042774;28;20047;-63
2024/01/24 01:08:48;;;;;;;10.68;2.10;;;11.30;99.90;;;;;;5042227;28;20048;-64
2024/01/24 01:11:14;;;;;;;7.80;1.58;;;11.30;99.90;;;;;;5045039;28;20049;-64
2024/01/24 01:13:40;;;;;;;7.05;1.70;;;11.30;99.90;;;;;;5042307;28;20053;-64
2024/01/24 01:16:06;;;;;;;7.72;1.42;;;11.30;99.90;;;;;;5044479;28;20067;-64
2024/01/24 01:18:34;;;;;;;4.95;1.35;;;11.30;99.90;;;;;;5043295;28;20045;-64
2024/01/24 01:21:08;;;;;;;3.28;1.30;;;11.30;99.90;;;;;;5035043;28;20048;-64
2024/01/24 01:23:34;;;;;;;5.13;1.17;;;11.30;99.90;;;;;;5041928;28;20130;-64
2024/01/24 01:26:00;;;;;;;4.00;1.50;;;11.30;99.90;;;;;;5044423;28;20044;-64
2024/01/24 01:28:26;;;;;;;7.72;1.02;;;11.30;99.90;;;;;;5040912;28;20514;-64
2024/01/24 01:30:51;;;;;;;2.50;1.10;;;11.30;99.90;;;;;;5041931;28;20561;-64
2024/01/24 01:33:17;;;;;;;2.88;0.82;;;11.20;99.90;;;;;;5044779;28;20045;-64
2024/01/24 01:35:43;;;;;;;8.45;1.88;;;11.20;99.90;;;;;;5043457;28;20103;-65
2024/01/24 01:38:09;;;;;;;7.45;0.65;;;11.30;99.90;;;;;;5019396;28;20038;-64
2024/01/24 01:40:35;;;;;;;11.55;2.00;;;11.30;99.90;;;;;;5039487;28;20047;-64
2024/01/24 01:43:00;;;;;;;9.30;1.35;;;11.30;99.90;;;;;;5044452;28;20044;-64
2024/01/24 01:45:26;;;;;;;7.43;1.20;;;11.30;99.90;;;;;;5043959;28;20116;-64
2024/01/24 01:47:52;;;;;;;13.15;2.78;;;11.30;99.90;;;;;;5037176;28;20049;-64
2024/01/24 01:50:19;;;;;;;7.15;1.75;;;11.40;99.90;;;;;;5041078;28;20369;-63
2024/01/24 01:52:45;;;;;;;6.63;1.00;;;11.40;99.90;;;;;;5023985;28;20125;-64
2024/01/24 01:55:13;;;;;;;1.98;1.08;;;11.50;99.90;;;;;;5042956;28;20064;-64
2024/01/24 01:57:42;;;;;;;3.65;1.00;;;11.50;99.90;;;;;;5023647;28;20056;-64
2024/01/24 02:00:10;;;;;;;6.07;1.00;;;11.60;99.90;;;;;;5044236;28;20040;-64
2024/01/24 02:02:36;;;;;;;3.88;1.05;;;11.60;99.90;;;;;;5041291;28;20040;-64
2024/01/24 02:05:04;;;;;;;6.85;1.48;;;11.70;99.90;;;;;;5041735;28;20049;-63
2024/01/24 02:07:30;;;;;;;8.60;1.77;;;11.70;99.90;;;;;;5034507;28;20092;-64
2024/01/24 02:09:56;;;;;;;4.72;1.17;;;11.80;99.90;;;;;;5042925;28;20122;-64
2024/01/24 02:12:22;;;;;;;1.42;0.82;;;11.80;99.90;;;;;;5043428;28;20076;-64
2024/01/24 02:14:48;;;;;;;8.18;1.85;;;11.80;99.90;;;;;;5042465;28;20061;-64
2024/01/24 02:17:14;;;;;;;6.22;1.35;;;11.80;99.90;;;;;;5036702;28;20094;-63
2024/01/24 02:19:40;;;;;;;5.72;1.25;;;11.80;99.90;;;;;;5043488;28;20053;-63
2024/01/24 02:22:06;;;;;;;5.10;0.93;;;11.80;99.90;;;;;;5040479;28;20067;-63
2024/01/24 02:24:32;;;;;;;2.50;1.00;;;11.80;99.90;;;;;;5041623;28;20060;-63
2024/01/24 02:26:58;;;;;;;4.28;0.95;;;11.80;99.90;;;;;;5040557;28;20040;-63
2024/01/24 02:29:23;;;;;;;2.95;0.80;;;11.80;99.90;;;;;;5040440;28;20158;-64
2024/01/24 02:31:49;;;;;;;4.22;0.90;;;11.80;99.90;;;;;;5056829;28;20131;-63
2024/01/24 02:34:15;;;;;;;9.20;1.73;;;11.80;99.90;;;;;;5043851;28;20060;-63
2024/01/24 02:36:41;;;;;;;3.03;0.60;;;11.80;99.90;;;;;;5039620;28;20060;-63
2024/01/24 02:39:07;;;;;;;7.43;1.05;;;11.80;99.90;;;;;;5041587;28;20045;-63
2024/01/24 02:41:33;;;;;;;11.20;1.77;;;11.70;99.90;;;;;;5042160;28;20048;-63
2024/01/24 02:43:59;;;;;;;6.50;1.05;;;11.70;99.90;;;;;;5042244;28;20184;-63
2024/01/24 02:46:25;;;;;;;4.53;0.90;;;11.70;99.90;;;;;;5055855;28;20608;-63
2024/01/24 02:48:51;;;;;;;5.35;0.98;;;11.70;99.90;;;;;;5041997;28;20044;-63
2024/01/24 02:51:27;;;;;;;2.88;1.17;;;11.60;99.90;;;;;;5042701;28;20037;-63
2024/01/24 02:53:53;;;;;;;5.05;1.20;;;11.70;99.90;;;;;;5027356;28;20055;-63
2024/01/24 02:56:19;;;;;;;6.05;1.17;;;11.70;99.90;;;;;;5041831;28;20033;-64
2024/01/24 02:58:51;;;;;;;3.70;0.77;;;11.70;99.90;;;;;;5039186;28;20045;-63
2024/01/24 03:01:17;;;;;;;7.20;1.60;;;11.70;99.90;;;;;;5040399;28;20080;-63
2024/01/24 03:03:45;;;;;;;3.72;0.82;;;11.70;99.90;;;;;;5040722;28;20095;-63
2024/01/24 03:06:13;;;;;;;6.43;0.82;;;11.70;99.90;;;;;;5039052;28;20739;-63
2024/01/24 03:08:58;;;;;;;0.90;0.45;;;11.70;99.90;;;;;;5043204;28;20040;-63
2024/01/24 03:11:25;;;;;;;3.35;0.77;;;11.70;99.90;;;;;;5039907;28;20124;-63
2024/01/24 03:13:51;;;;;;;6.70;1.23;;;11.60;99.90;;;;;;5039393;28;20684;-63
2024/01/24 03:16:17;;;;;;;6.32;0.88;;;11.70;99.90;;;;;;5041336;28;20076;-63
2024/01/24 03:18:43;;;;;;;4.10;1.70;;;11.70;99.90;;;;;;5041332;28;20045;-63
2024/01/24 03:21:14;;;;;;;5.22;0.70;;;11.70;99.90;;;;;;5043017;28;20518;-63
2024/01/24 03:23:40;;;;;;;2.13;0.50;;;11.70;99.90;;;;;;5029530;28;20044;-63
2024/01/24 03:26:07;;;;;;;4.13;1.10;;;11.70;99.90;;;;;;5041710;28;20883;-63
2024/01/24 03:28:36;;;;;;;7.43;1.08;;;11.70;99.90;;;;;;5031635;28;20049;-63
2024/01/24 03:31:02;;;;;;;4.10;1.03;;;11.70;99.90;;;;;;5042824;28;20092;-63
2024/01/24 03:33:29;;;;;;;3.63;1.25;;;11.70;99.90;;;;;;5039921;28;20041;-63
2024/01/24 03:35:55;;;;;;;5.63;1.40;;;11.60;99.90;;;;;;5042148;28;20045;-62
2024/01/24 03:38:21;;;;;;;10.60;2.38;;;11.60;99.90;;;;;;5041914;28;20608;-63
2024/01/24 03:40:48;;;;;;;3.10;1.40;;;11.60;99.90;;;;;;5023390;28;20084;-63
2024/01/24 03:43:15;;;;;;;6.70;0.82;;;11.60;99.90;;;;;;5041595;28;20621;-63
2024/01/24 03:45:40;;;;;;;5.47;1.17;;;11.50;99.90;;;;;;5040949;28;20116;-63
2024/01/24 03:48:07;;;;;;;5.40;1.67;;;11.40;99.90;;;;;;5042098;28;20164;-63
2024/01/24 03:50:33;;;;;;;13.48;2.28;;;11.40;99.90;;;;;;5040965;28;20041;-63
2024/01/24 03:53:02;;;;;;;5.10;1.33;;;11.40;99.90;;;;;;5039523;28;20053;-63
2024/01/24 03:55:29;;;;;;;16.80;2.42;;;11.40;99.90;;;;;;5042675;28;20512;-63
2024/01/24 03:57:55;;;;;;;5.65;1.92;;;11.40;99.90;;;;;;5038518;28;20045;-62
2024/01/24 04:00:21;;;;;;;10.52;1.42;;;11.40;99.90;;;;;;5042600;28;20521;-63
2024/01/24 04:02:47;;;;;;;6.25;1.27;;;11.40;99.90;;;;;;5038888;28;20128;-63
2024/01/24 04:05:14;;;;;;;6.82;1.73;;;11.40;99.90;;;;;;5041164;28;20645;-63
2024/01/24 04:07:40;;;;;;;4.82;1.45;;;11.30;99.90;;;;;;5038994;28;20120;-63
2024/01/24 04:10:07;;;;;;;8.90;1.60;;;11.30;99.90;;;;;;5038101;28;20041;-63
2024/01/24 04:12:33;;;;;;;15.13;2.83;;;11.30;99.90;;;;;;5039898;28;20052;-63
2024/01/24 04:14:59;;;;;;;7.70;2.15;;;11.30;99.90;;;;;;5039303;28;20496;-62
2024/01/24 04:17:24;;;;;;;3.97;1.50;;;11.40;99.90;;;;;;5041927;28;20141;-63
2024/01/24 04:19:51;;;;;;;10.30;1.92;;;11.40;99.90;;;;;;5041749;28;20063;-63
2024/01/24 04:22:17;;;;;;;8.85;1.58;;;11.40;99.90;;;;;;5041841;28;20485;-62
2024/01/24 04:24:44;;;;;;;10.88;1.70;;;11.30;99.90;;;;;;5039908;28;20037;-63
2024/01/24 04:27:19;;;;;;;4.55;1.50;;;11.30;99.90;;;;;;5039074;28;20047;-63
2024/01/24 04:29:45;;;;;;;10.10;2.17;;;11.30;99.90;;;;;;5038101;28;20410;-63
2024/01/24 04:32:11;;;;;;;4.25;1.60;;;11.30;99.90;;;;;;5042022;28;20053;-63
2024/01/24 04:34:37;;;;;;;10.13;2.40;;;11.30;99.90;;;;;;5042815;28;20037;-63
2024/01/24 04:37:03;;;;;;;5.57;1.65;;;11.30;99.90;;;;;;5039779;28;20051;-63
2024/01/24 04:39:29;;;;;;;10.35;1.92;;;11.30;99.90;;;;;;5040073;28;20045;-63
2024/01/24 04:41:54;;;;;;;8.15;2.53;;;11.30;99.90;;;;;;5041395;28;20811;-62
2024/01/24 04:44:20;;;;;;;4.20;1.65;;;11.30;99.90;;;;;;5039891;28;20604;-62
2024/01/24 04:46:46;;;;;;;14.48;3.35;;;11.20;99.90;;;;;;5041154;28;20549;-63
2024/01/24 04:49:12;;;;;;;12.43;2.63;;;11.10;99.90;;;;;;5039386;28;20049;-63
2024/01/24 04:51:38;;;;;;;14.52;3.30;;;11.10;99.90;;;;;;5022523;28;20044;-63
2024/01/24 04:54:04;;;;;;;13.48;3.25;;;11.10;99.90;;;;;;5039810;28;20056;-63
2024/01/24 04:56:30;;;;;;;19.67;4.72;;;11.10;99.90;;;;;;5037235;28;20035;-63
2024/01/24 04:58:56;;;;;;;14.35;3.38;;;11.00;99.90;;;;;;5040000;28;20040;-62
2024/01/24 05:01:23;;;;;;;11.05;2.17;;;11.00;99.90;;;;;;5040681;28;20041;-63
2024/01/24 05:03:49;;;;;;;14.70;3.25;;;10.90;99.90;;;;;;5040681;28;20060;-63
2024/01/24 05:06:16;;;;;;;14.15;3.35;;;10.90;99.90;;;;;;5038894;28;20044;-63
2024/01/24 05:08:42;;;;;;;7.78;2.20;;;10.80;99.90;;;;;;5039181;28;20072;-62
2024/01/24 05:11:07;;;;;;;11.90;2.58;;;10.80;99.90;;;;;;5040331;28;20983;-62
2024/01/24 05:13:33;;;;;;;14.95;2.88;;;10.70;99.90;;;;;;5043057;28;20524;-62
2024/01/24 05:16:01;;;;;;;15.15;3.42;;;10.70;99.90;;;;;;5034827;28;20085;-62
2024/01/24 05:18:26;;;;;;;9.65;2.70;;;10.60;99.90;;;;;;5039051;28;20507;-63
2024/01/24 05:20:52;;;;;;;13.82;2.10;;;10.60;99.90;;;;;;5039771;28;20060;-62
2024/01/24 05:23:18;;;;;;;17.42;2.92;;;10.70;99.90;;;;;;5023059;28;20143;-62
2024/01/24 05:25:44;;;;;;;8.35;1.88;;;10.60;99.90;;;;;;5036360;28;20059;-62
2024/01/24 05:28:11;;;;;;;12.20;2.15;;;10.70;99.90;;;;;;5039226;28;20045;-62
2024/01/24 05:30:37;;;;;;;11.55;2.92;;;10.70;99.90;;;;;;5018810;28;20037;-61
2024/01/24 05:33:03;;;;;;;12.98;2.63;;;10.60;99.90;;;;;;5022275;28;20053;-61
2024/01/24 05:35:30;;;;;;;20.58;4.38;;;10.70;99.90;;;;;;5043276;28;20124;-62
2024/01/24 05:37:55;;;;;;;16.65;3.30;;;10.70;99.90;;;;;;5041058;28;20037;-62
2024/01/24 05:40:21;;;;;;;15.48;3.55;;;10.60;99.90;;;;;;5055998;28;20044;-62
2024/01/24 05:42:48;;;;;;;23.92;3.35;;;10.70;79.90;;;;;;5035689;28;20055;-62
2024/01/24 05:45:13;;;;;;;13.82;2.75;;;10.70;74.20;;;;;;5038478;28;20112;-62
2024/01/24 05:47:40;;;;;;;18.33;3.20;;;10.60;71.70;;;;;;5042238;28;20040;-62
2024/01/24 05:50:15;;;;;;;16.17;2.70;;;10.60;60.70;;;;;;5038701;28;20049;-62
2024/01/24 05:52:42;;;;;;;16.48;3.35;;;10.60;60.90;;;;;;5040875;28;20060;-62
2024/01/24 05:55:10;;;;;;;21.77;3.78;;;10.70;54.30;;;;;;5040420;28;20068;-62
2024/01/24 05:57:39;;;;;;;14.50;2.80;;;10.70;54.90;;;;;;5039909;28;20041;-61
2024/01/24 06:00:14;;;;;;;19.00;3.55;;;10.70;55.00;;;;;;5038285;28;20072;-61
2024/01/24 06:02:40;;;;;;;30.92;5.93;;;10.70;44.40;;;;;;5036560;28;20045;-62
2024/01/24 06:05:07;;;;;;;21.10;4.18;;;10.80;36.50;;;;;;5040326;28;20048;-61
2024/01/24 06:07:33;;;;;;;13.18;2.92;;;10.80;35.20;;;;;;5036343;28;20526;-62
2024/01/24 06:10:00;;;;;;;12.07;2.75;;;10.80;35.80;;;;;;5039661;28;20128;-62
2024/01/24 06:12:25;;;;;;;18.20;3.80;;;10.70;36.60;;;;;;5039307;28;20518;-62
2024/01/24 06:14:56;;;;;;;15.00;2.58;;;10.60;38.00;;;;;;5041543;28;20477;-62
2024/01/24 06:17:23;;;;;;;14.23;3.33;;;10.60;37.50;;;;;;5041451;28;20443;-61
2024/01/24 06:19:50;;;;;;;22.42;3.67;;;10.50;34.60;;;;;;5036876;28;20045;-62
2024/01/24 06:22:17;;;;;;;24.77;4.07;;;10.50;32.30;;;;;;5037869;28;20468;-62
2024/01/24 06:24:43;;;;;;;24.70;4.88;;;10.50;30.40;;;;;;5000145;28;20053;-62
2024/01/24 06:27:09;;;;;;;24.35;3.85;;;10.50;24.90;;;;;;5033340;28;20067;-62
2024/01/24 06:29:35;;;;;;;18.95;3.83;;;10.50;26.10;;;;;;5036073;28;20056;-62
2024/01/24 06:32:01;;;;;;;18.00;3.55;;;10.50;24.50;;;;;;5039741;28;20040;-62
2024/01/24 06:34:27;;;;;;;15.50;2.30;;;10.40;26.70;;;;;;5035277;28;20053;-62
2024/01/24 06:36:53;;;;;;;36.25;7.40;;;10.40;24.20;;;;;;5022522;28;20447;-62
2024/01/24 06:39:18;;;;;;;17.98;3.55;;;10.40;21.20;;;;;;5041665;28;20045;-62
2024/01/24 06:41:45;;;;;;;17.35;3.35;;;10.40;18.40;;;;;;5037028;28;20049;-62
2024/01/24 06:44:11;;;;;;;26.73;5.50;;;10.40;19.40;;;;;;5035255;28;20111;-62
2024/01/24 06:46:43;;;;;;;26.60;3.55;;;10.40;18.10;;;;;;5037674;28;20052;-62
2024/01/24 06:49:12;;;;;;;15.48;3.95;;;10.40;22.80;;;;;;5038361;28;20041;-62
2024/01/24 06:51:39;;;;;;;15.65;3.40;;;10.30;23.20;;;;;;5037870;28;20393;-63
2024/01/24 06:54:06;;;;;;;16.02;2.97;;;10.20;27.40;;;;;;5036442;28;20037;-62
2024/01/24 06:56:32;;;;;;;19.98;3.30;;;10.10;30.50;;;;;;5039699;28;20771;-62
2024/01/24 06:58:58;;;;;;;26.27;4.55;;;10.00;33.30;;;;;;5038266;28;20300;-62
2024/01/24 07:01:25;;;;;;;22.20;3.78;;;10.00;36.90;;;;;;5038354;28;20040;-62
2024/01/24 07:03:50;;;;;;;32.65;5.25;;;9.90;35.60;;;;;;5037321;28;20045;-62
2024/01/24 07:06:16;;;;;;;19.80;4.88;;;9.90;33.90;;;;;;5040499;28;20048;-62
2024/01/24 07:08:42;;;;;;;16.67;3.53;;;9.90;31.70;;;;;;5038416;28;20045;-62
2024/01/24 07:11:09;;;;;;;29.77;4.30;;;9.90;30.10;;;;;;5037350;28;20045;-61
2024/01/24 07:13:34;;;;;;;27.00;3.88;;;9.90;27.00;;;;;;5040298;28;20041;-62
2024/01/24 07:16:03;;;;;;;17.40;3.53;;;10.00;27.10;;;;;;5034094;28;20063;-62
2024/01/24 07:18:29;;;;;;;23.48;3.85;;;10.00;24.30;;;;;;5037819;28;20049;-62
2024/01/24 07:20:56;;;;;;;11.32;2.28;;;10.00;22.00;;;;;;5035387;28;20055;-62
2024/01/24 07:23:21;;;;;;;21.80;4.43;;;10.10;23.40;;;;;;5040800;28;20055;-62
2024/01/24 07:25:47;;;;;;;19.00;3.20;;;10.10;18.50;;;;;;5034775;28;20045;-62
2024/01/24 07:28:14;;;;;;;37.42;6.53;;;10.10;18.50;;;;;;5039965;28;20507;-62
2024/01/24 07:30:40;;;;;;;21.38;4.03;;;10.10;18.50;;;;;;5035684;28;20397;-62
2024/01/24 07:33:06;;;;;;;13.43;2.72;;;10.10;15.90;;;;;;5038620;28;20128;-62
2024/01/24 07:35:31;;;;;;;24.25;5.22;;;10.10;16.70;;;;;;5039849;28;20084;-61
2024/01/24 07:37:58;;;;;;;15.75;2.83;;;10.10;15.80;;;;;;5036937;28;20573;-62
2024/01/24 07:40:42;;;;;;;30.65;4.97;;;10.10;15.50;;;;;;5040736;28;20045;-62
2024/01/24 07:43:08;;;;;;;19.45;4.15;;;10.10;14.70;;;;;;5035986;28;20060;-62
2024/01/24 07:45:36;;;;;;;18.33;3.50;;;10.00;15.30;;;;;;5035781;28;20045;-62
2024/01/24 07:48:02;;;;;;;25.30;4.30;;;10.00;16.20;;;;;;5035633;28;20048;-62
2024/01/24 07:50:28;;;;;;;24.58;5.50;;;10.00;16.90;;;;;;5038816;28;20789;-62
2024/01/24 07:52:53;;;;;;;34.58;6.25;;;10.00;14.10;;;;;;5038317;28;20130;-62
2024/01/24 07:55:21;;;;;;;18.27;4.65;;;9.90;15.10;;;;;;5036340;28;20033;-62
2024/01/24 07:57:47;;;;;;;21.90;4.70;;;9.90;15.00;;;;;;5037044;28;20130;-61
2024/01/24 08:00:16;;;;;;;10.13;2.85;;;9.90;15.40;;;;;;5038507;28;20458;-62
2024/01/24 08:02:45;;;;;;;33.42;6.80;;;9.90;16.70;;;;;;5033371;28;20037;-62
2024/01/24 08:05:12;;;;;;;22.58;4.82;;;10.00;13.10;;;;;;5035380;28;20049;-62
2024/01/24 08:07:41;;;;;;;24.80;4.80;;;10.00;15.50;;;;;;5036408;28;20060;-62
2024/01/24 08:10:11;;;;;;;15.80;3.15;;;10.00;16.20;;;;;;5039556;28;20492;-62
2024/01/24 08:12:38;;;;;;;23.80;5.97;;;10.00;19.30;;;;;;5035020;28;20052;-62
2024/01/24 08:15:06;;;;;;;21.00;4.43;;;9.90;20.30;;;;;;5035424;28;20431;-62
2024/01/24 08:17:32;;;;;;;14.93;3.70;;;10.00;22.60;;;;;;5035189;28;20049;-62
2024/01/24 08:19:59;;;;;;;12.35;2.80;;;9.90;25.60;;;;;;5036153;28;20525;-62
2024/01/24 08:22:29;;;;;;;32.58;7.20;;;9.90;26.90;;;;;;5031841;28;20051;-62
2024/01/24 08:24:55;;;;;;;21.98;3.92;;;9.90;28.20;;;;;;5032515;28;20045;-61
2024/01/24 08:27:21;;;;;;;13.43;3.55;;;9.90;27.50;;;;;;5036302;28;20143;-62
2024/01/24 08:29:47;;;;;;;14.48;3.20;;;9.90;28.40;;;;;;5035995;28;20170;-62
2024/01/24 08:32:12;;;;;;;23.33;3.63;;;10.00;27.80;;;;;;5034775;28;20562;-62
2024/01/24 08:34:40;;;;;;;23.75;5.70;;;9.90;25.00;;;;;;5036104;28;20501;-62
2024/01/24 08:37:06;;;;;;;25.70;4.65;;;10.00;28.10;;;;;;5036663;28;20098;-62
2024/01/24 08:39:33;;;;;;;26.92;5.00;;;9.90;26.30;;;;;;5032532;28;20885;-62
2024/01/24 08:42:00;;;;;;;25.08;4.75;;;10.00;24.70;;;;;;5047967;28;20503;-61
2024/01/24 08:44:27;;;;;;;10.90;2.20;;;10.00;26.10;;;;;;5033727;28;20059;-62
2024/01/24 08:46:53;;;;;;;13.02;2.88;;;10.00;26.90;;;;;;5032044;28;20041;-61
2024/01/24 08:49:18;;;;;;;25.95;5.75;;;9.90;27.80;;;;;;5033053;28;20067;-62
2024/01/24 08:51:44;;;;;;;18.60;4.43;;;9.90;27.70;;;;;;5013956;28;20586;-61
2024/01/24 08:54:14;;;;;;;13.15;3.75;;;9.90;27.70;;;;;;5036739;28;20638;-62
2024/01/24 08:56:40;;;;;;;22.05;5.32;;;9.90;27.70;;;;;;5032218;28;20128;-62
2024/01/24 08:59:06;;;;;;;24.85;5.30;;;9.90;27.50;;;;;;5015143;28;20395;-61
2024/01/24 09:01:32;;;;;;;17.63;4.05;;;9.90;25.10;;;;;;5031449;28;20057;-62
2024/01/24 09:03:58;;;;;;;15.65;3.75;;;9.90;24.50;;;;;;5031620;28;20051;-61
2024/01/24 09:06:25;;;;;;;23.10;3.40;;;9.90;28.50;;;;;;5039950;28;20049;-62
2024/01/24 09:08:52;;;;;;;24.13;4.93;;;9.90;27.80;;;;;;5036053;28;20360;-62
2024/01/24 09:11:21;;;;;;;29.65;4.63;;;9.90;25.60;;;;;;5038572;28;20058;-62
2024/01/24 09:13:48;;;;;;;25.27;4.50;;;10.00;23.10;;;;;;5038020;28;20064;-62
2024/01/24 09:16:15;;;;;;;25.17;5.43;;;9.90;24.40;;;;;;5040251;28;20284;-61
2024/01/24 09:18:42;;;;;;;22.45;4.25;;;10.00;20.50;;;;;;5041217;28;20049;-62
2024/01/24 09:21:09;;;;;;;16.55;3.88;;;10.00;23.50;;;;;;5023800;28;20577;-61
2024/01/24 09:23:35;;;;;;;41.30;7.63;;;10.00;24.40;;;;;;5040476;28;20041;-61
2024/01/24 09:26:04;;;;;;;18.05;4.97;;;10.00;23.10;;;;;;5040151;28;20049;-61
2024/01/24 09:28:30;;;;;;;20.95;4.72;;;9.90;24.90;;;;;;5041447;28;20118;-62
2024/01/24 09:30:56;;;;;;;21.48;4.35;;;9.90;24.80;;;;;;5055535;28;20506;-62
2024/01/24 09:33:23;;;;;;;15.65;4.07;;;9.90;26.10;;;;;;5042001;28;20037;-61
2024/01/24 09:35:49;;;;;;;22.27;4.30;;;10.00;23.00;;;;;;5040205;28;20102;-61
2024/01/24 09:38:15;;;;;;;34.92;5.05;;;10.00;24.80;;;;;;5039601;28;20487;-62
2024/01/24 09:40:42;;;;;;;15.63;3.65;;;10.00;21.90;;;;;;5041783;28;20484;-61
2024/01/24 09:43:09;;;;;;;26.88;6.47;;;10.10;24.60;;;;;;5036313;28;20056;-61
2024/01/24 09:45:40;;;;;;;22.10;4.10;;;10.10;23.60;;;;;;5038736;28;20056;-61
2024/01/24 09:48:09;;;;;;;30.52;6.88;;;10.10;23.00;;;;;;5037760;28;20040;-61
2024/01/24 09:50:35;;;;;;;23.83;4.88;;;10.10;22.20;;;;;;5038733;28;20040;-61
2024/01/24 09:53:05;;;;;;;19.52;4.15;;;10.10;23.00;;;;;;5036302;28;20247;-61
2024/01/24 09:55:32;;;;;;;20.23;3.80;;;10.10;24.20;;;;;;5036025;28;20056;-61
2024/01/24 09:58:00;;;;;;;14.57;2.80;;;10.10;24.70;;;;;;5038633;28;20067;-61
2024/01/24 10:00:26;;;;;;;31.75;6.60;;;10.20;24.90;;;;;;5036624;28;20180;-62
2024/01/24 10:02:54;;;;;;;13.52;3.13;;;10.20;23.70;;;;;;5036869;28;20041;-61
2024/01/24 10:05:26;;;;;;;41.65;6.95;;;10.20;23.60;;;;;;5035345;28;20459;-61
2024/01/24 10:07:54;;;;;;;26.83;6.05;;;10.30;20.30;;;;;;5033558;28;20586;-61
2024/01/24 10:10:20;;;;;;;37.33;8.45;;;10.30;18.90;;;;;;5038174;28;20072;-61
2024/01/24 10:12:46;;;;;;;30.45;5.80;;;10.30;20.50;;;;;;5041034;28;20175;-61
2024/01/24 10:15:13;;;;;;;23.60;5.15;;;10.40;21.70;;;;;;5037044;28;20790;-61
2024/01/24 10:17:43;;;;;;;26.70;6.35;;;10.30;20.30;;;;;;5038190;28;20691;-61
2024/01/24 10:20:11;;;;;;;33.95;5.00;;;10.40;17.70;;;;;;5039610;28;20040;-61
2024/01/24 10:22:43;;;;;;;33.33;4.80;;;10.40;22.00;;;;;;5035214;28;20564;-61
2024/01/24 10:25:10;;;;;;;30.08;6.28;;;10.30;19.30;;;;;;5024676;28;20079;-61
2024/01/24 10:27:38;;;;;;;17.30;3.67;;;10.30;19.70;;;;;;5039999;28;20080;-61
2024/01/24 10:30:19;;;;;;;31.10;5.43;;;10.30;19.10;;;;;;5034762;28;20505;-61
2024/01/24 10:32:47;;;;;;;28.17;5.68;;;10.30;19.80;;;;;;5009188;28;20052;-62
2024/01/24 10:35:12;;;;;;;37.22;6.38;;;10.30;22.20;;;;;;5037147;28;20539;-61
2024/01/24 10:37:41;;;;;;;22.35;4.70;;;10.30;16.90;;;;;;5038680;28;20045;-62
2024/01/24 10:40:13;;;;;;;22.85;5.40;;;10.30;19.50;;;;;;5036115;28;20107;-61
2024/01/24 10:42:41;;;;;;;17.85;3.90;;;10.30;22.30;;;;;;5040818;28;20045;-61
2024/01/24 10:45:08;;;;;;;46.30;8.90;;;10.20;24.30;;;;;;5038249;28;20143;-61
2024/01/24 10:47:34;;;;;;;39.13;7.22;;;10.30;27.30;;;;;;5036929;28;20045;-61
2024/01/24 10:50:07;;;;;;;16.23;3.75;;;10.20;29.00;;;;;;5039667;28;20127;-62
2024/01/24 10:52:34;;;;;;;40.10;10.23;;;10.20;21.50;;;;;;5035545;28;20052;-62
2024/01/24 10:55:07;;;;;;;28.83;5.75;;;10.30;18.50;;;;;;5035979;28;20048;-62
2024/01/24 10:57:34;;;;;;;26.55;4.60;;;10.30;19.60;;;;;;5017472;28;20127;-62
2024/01/24 11:00:05;;;;;;;24.48;5.10;;;10.30;22.50;;;;;;5026521;28;20506;-62
2024/01/24 11:02:34;;;;;;;36.72;5.15;;;10.40;21.70;;;;;;5036950;28;20430;-62
2024/01/24 11:05:05;;;;;;;31.50;7.40;;;10.40;23.10;;;;;;5035699;28;20122;-61
2024/01/24 11:07:40;;;;;;;21.13;3.70;;;10.30;21.50;;;;;;5037427;28;20035;-62
2024/01/24 11:10:32;;;;;;;26.95;4.93;;;10.30;24.70;;;;;;5037588;28;20041;-62
2024/01/24 11:13:01;;;;;;;29.02;5.85;;;10.30;19.90;;;;;;5039998;28;20507;-62
2024/01/24 11:15:28;;;;;;;25.45;5.35;;;10.30;18.90;;;;;;5037674;28;20396;-62
2024/01/24 11:18:28;;;;;;;28.75;6.03;;;10.30;22.40;;;;;;5038153;28;20049;-62
2024/01/24 11:20:56;;;;;;;14.98;3.47;;;10.30;23.90;;;;;;5040710;28;20663;-62
2024/01/24 11:23:40;;;;;;;19.92;5.20;;;10.30;23.20;;;;;;5037178;28;20044;-62
2024/01/24 11:26:11;;;;;;;27.00;5.45;;;10.30;22.60;;;;;;5036544;28;20805;-62
2024/01/24 11:28:38;;;;;;;30.58;6.78;;;10.30;20.30;;;;;;5036165;28;20517;-62
2024/01/24 11:31:07;;;;;;;32.38;5.80;;;10.40;18.50;;;;;;5033124;28;20192;-62
2024/01/24 11:33:33;;;;;;;36.25;9.77;;;10.30;18.00;;;;;;5036773;28;20153;-62
2024/01/24 11:36:01;;;;;;;25.35;7.03;;;10.30;20.50;;;;;;5034506;28;20135;-62
2024/01/24 11:38:27;;;;;;;25.83;5.78;;;10.20;18.80;;;;;;5038490;28;20041;-62
2024/01/24 11:40:59;;;;;;;40.47;8.90;;;10.30;21.20;;;;;;5028449;28;20051;-62
2024/01/24 11:43:34;;;;;;;33.38;8.52;;;10.20;18.10;;;;;;5036454;28;20448;-62
2024/01/24 11:46:03;;;;;;;42.10;9.60;;;10.30;16.30;;;;;;5031110;28;20048;-62
2024/01/24 11:48:30;;;;;;;38.28;7.93;;;10.30;19.70;;;;;;5034344;28;20069;-62
2024/01/24 11:50:57;;;;;;;43.95;9.48;;;10.30;16.10;;;;;;5037367;28;20056;-62
2024/01/24 11:53:24;;;;;;;30.67;8.10;;;10.30;19.30;;;;;;5034982;28;20037;-62
2024/01/24 11:56:03;;;;;;;33.42;8.63;;;10.30;17.20;;;;;;5019003;28;20095;-62
2024/01/24 11:58:30;;;;;;;33.65;5.25;;;10.30;17.90;;;;;;5033215;28;20049;-62
2024/01/24 12:01:00;;;;;;;21.23;5.38;;;10.30;19.00;;;;;;5034340;28;20266;-62
2024/01/24 12:03:26;;;;;;;23.80;5.15;;;10.30;20.90;;;;;;5036022;28;20051;-62
2024/01/24 12:05:52;;;;;;;17.05;4.07;;;10.30;18.10;;;;;;5034653;28;21728;-62
2024/01/24 12:08:19;;;;;;;29.08;6.85;;;10.30;20.60;;;;;;5035021;28;20406;-62
2024/01/24 12:10:44;;;;;;;22.77;4.78;;;10.30;18.10;;;;;;5034675;28;20104;-62
2024/01/24 12:13:12;;;;;;;28.95;5.80;;;10.30;20.50;;;;;;5033163;28;20516;-62
2024/01/24 12:15:38;;;;;;;35.08;6.85;;;10.30;19.00;;;;;;5036895;28;20415;-62
2024/01/24 12:18:16;;;;;;;43.03;9.50;;;10.30;20.50;;;;;;5035293;28;20056;-62
2024/01/24 12:20:47;;;;;;;34.67;7.38;;;10.30;18.90;;;;;;5038297;28;20044;-62
2024/01/24 12:23:13;;;;;;;45.88;10.05;;;10.30;17.00;;;;;;5032995;28;20608;-62
2024/01/24 12:25:39;;;;;;;23.30;5.15;;;10.40;24.80;;;;;;5037770;28;20045;-62
2024/01/24 12:28:06;;;;;;;17.30;4.68;;;10.50;19.10;;;;;;5033581;28;20041;-62
2024/01/24 12:30:33;;;;;;;40.75;9.43;;;10.40;17.60;;;;;;5034416;28;20072;-62
2024/01/24 12:32:59;;;;;;;33.97;9.40;;;10.40;18.50;;;;;;5030603;28;20063;-62
2024/01/24 12:35:26;;;;;;;20.17;5.25;;;10.40;16.20;;;;;;5033795;28;20427;-62
2024/01/24 12:37:52;;;;;;;38.92;8.25;;;10.40;15.90;;;;;;5036817;28;20553;-62
2024/01/24 12:40:18;;;;;;;37.72;8.18;;;10.40;20.90;;;;;;5018420;28;20041;-62